createdAt,value
2022-12-04T00:01:47.183Z,184.70
2022-12-04T00:04:17.502Z,168.88
2022-12-04T00:06:47.752Z,176.05
2022-12-04T00:09:20.591Z,157.20
2022-12-04T00:11:50.753Z,169.90
2022-12-04T00:14:22.302Z,165.60
2022-12-04T00:16:53.351Z,145.98
2022-12-04T00:19:24.096Z,145.70
2022-12-04T00:21:54.728Z,144.68
2022-12-04T00:24:28.400Z,139.90
2022-12-04T00:26:58.368Z,132.88
2022-12-04T00:29:28.431Z,141.95
2022-12-04T00:31:59.191Z,135.63
2022-12-04T00:34:29.323Z,132.05
2022-12-04T00:36:59.623Z,129.10
2022-12-04T00:39:32.446Z,141.85
2022-12-04T00:42:03.683Z,131.10
2022-12-04T00:44:33.848Z,128.27
2022-12-04T00:47:04.081Z,133.25
2022-12-04T00:49:34.338Z,137.10
2022-12-04T00:52:04.517Z,145.27
2022-12-04T00:54:37.246Z,132.65
2022-12-04T00:57:07.523Z,130.70
2022-12-04T00:59:37.656Z,136.77
2022-12-04T01:02:08.096Z,139.88
2022-12-04T01:04:38.328Z,146.85
2022-12-04T01:07:08.524Z,137.95
2022-12-04T01:09:41.392Z,133.65
2022-12-04T01:12:13.922Z,141.23
2022-12-04T01:14:47.913Z,134.82
2022-12-04T01:17:18.316Z,137.77
2022-12-04T01:19:48.785Z,132.38
2022-12-04T01:22:19.007Z,137.45
2022-12-04T01:24:51.905Z,134.48
2022-12-04T01:27:21.943Z,137.20
2022-12-04T01:29:52.278Z,138.13
2022-12-04T01:32:22.625Z,138.75
2022-12-04T01:34:52.709Z,138.95
2022-12-04T01:37:23.624Z,125.55
2022-12-04T01:39:56.737Z,134.15
2022-12-04T01:42:27.085Z,129.93
2022-12-04T01:45:27.876Z,131.25
2022-12-04T01:48:01.442Z,133.30
2022-12-04T01:50:33.479Z,127.75
2022-12-04T01:53:03.675Z,134.32
2022-12-04T01:55:37.097Z,134.40
2022-12-04T01:58:07.340Z,122.78
2022-12-04T02:00:38.164Z,130.93
2022-12-04T02:03:08.323Z,127.05
2022-12-04T02:05:38.790Z,117.78
2022-12-04T02:08:10.665Z,118.25
2022-12-04T02:10:54.678Z,113.43
2022-12-04T02:13:34.570Z,121.18
2022-12-04T02:16:13.186Z,118.25
2022-12-04T02:18:53.527Z,124.20
2022-12-04T02:21:30.422Z,116.97
2022-12-04T02:24:25.360Z,119.68
2022-12-04T02:27:02.189Z,110.82
2022-12-04T02:29:43.522Z,115.07
2022-12-04T02:32:22.886Z,106.90
2022-12-04T02:34:59.830Z,111.15
2022-12-04T02:37:35.103Z,112.70
2022-12-04T02:40:10.516Z,108.38
2022-12-04T02:42:46.832Z,104.43
2022-12-04T02:45:25.404Z,104.10
2022-12-04T02:47:56.986Z,100.32
2022-12-04T02:50:28.428Z,92.68
2022-12-04T02:53:05.262Z,98.43
2022-12-04T02:55:40.845Z,90.88
2022-12-04T02:58:14.680Z,93.22
2022-12-04T03:01:00.817Z,86.28
2022-12-04T03:03:33.963Z,87.43
2022-12-04T03:06:08.228Z,90.10
2022-12-04T03:08:43.348Z,84.00
2022-12-04T03:11:13.726Z,86.45
2022-12-04T03:13:49.636Z,80.88
2022-12-04T03:16:27.887Z,77.15
2022-12-04T03:19:01.202Z,86.55
2022-12-04T03:21:35.226Z,88.07
2022-12-04T03:24:13.724Z,81.25
2022-12-04T03:26:48.779Z,71.88
2022-12-04T03:29:24.200Z,63.25
2022-12-04T03:32:04.194Z,63.08
2022-12-04T03:34:40.103Z,77.55
2022-12-04T03:37:17.118Z,69.88
2022-12-04T03:39:56.137Z,64.50
2022-12-04T03:42:30.604Z,57.08
2022-12-04T03:45:05.621Z,67.18
2022-12-04T03:47:42.404Z,61.88
2022-12-04T03:50:18.737Z,69.10
2022-12-04T03:52:54.146Z,66.82
2022-12-04T03:55:30.159Z,69.57
2022-12-04T03:58:08.144Z,65.00
2022-12-04T04:00:43.261Z,64.50
2022-12-04T04:03:20.709Z,58.05
2022-12-04T04:05:56.499Z,62.50
2022-12-04T04:08:34.134Z,60.22
2022-12-04T04:11:14.983Z,62.20
2022-12-04T04:14:01.625Z,56.90
2022-12-04T04:16:46.760Z,60.15
2022-12-04T04:19:35.304Z,61.60
2022-12-04T04:22:21.626Z,59.38
2022-12-04T04:24:57.082Z,62.10
2022-12-04T04:27:27.312Z,63.85
2022-12-04T04:29:57.746Z,60.80
2022-12-04T04:32:37.520Z,70.93
2022-12-04T04:35:21.010Z,70.47
2022-12-04T04:37:59.644Z,69.43
2022-12-04T04:40:39.054Z,65.93
2022-12-04T04:43:13.307Z,60.13
2022-12-04T04:45:50.932Z,65.22
2022-12-04T04:48:26.900Z,53.45
2022-12-04T04:51:00.976Z,59.67
2022-12-04T04:53:37.146Z,66.63
2022-12-04T04:56:10.207Z,52.72
2022-12-04T04:58:40.356Z,55.75
2022-12-04T05:01:12.432Z,52.78
2022-12-04T05:03:43.520Z,54.45
2022-12-04T05:06:17.065Z,61.28
2022-12-04T05:08:49.403Z,56.40
2022-12-04T05:11:20.758Z,53.88
2022-12-04T05:13:50.785Z,56.53
2022-12-04T05:16:21.374Z,59.58
2022-12-04T05:19:03.648Z,54.28
2022-12-04T05:21:37.047Z,53.17
2022-12-04T05:24:07.401Z,51.13
2022-12-04T05:26:37.615Z,53.53
2022-12-04T05:29:07.794Z,51.70
2022-12-04T05:31:39.176Z,52.65
2022-12-04T05:34:09.492Z,49.42
2022-12-04T05:36:42.738Z,51.65
2022-12-04T05:39:12.776Z,52.15
2022-12-04T05:41:43.224Z,47.40
2022-12-04T05:44:13.467Z,46.72
2022-12-04T05:46:43.738Z,44.75
2022-12-04T05:49:13.916Z,47.60
2022-12-04T05:51:47.075Z,48.10
2022-12-04T05:54:17.506Z,42.72
2022-12-04T05:56:47.742Z,43.13
2022-12-04T05:59:18.228Z,44.45
2022-12-04T06:01:48.731Z,43.95
2022-12-04T06:04:20.179Z,44.53
2022-12-04T06:06:53.417Z,46.05
2022-12-04T06:09:23.817Z,45.22
2022-12-04T06:12:00.219Z,45.38
2022-12-04T06:14:33.702Z,45.80
2022-12-04T06:17:07.135Z,45.50
2022-12-04T06:19:37.623Z,44.78
2022-12-04T06:22:10.560Z,41.45
2022-12-04T06:24:42.158Z,37.70
2022-12-04T06:27:27.270Z,44.65
2022-12-04T06:29:58.647Z,44.20
2022-12-04T06:32:29.594Z,37.38
2022-12-04T06:34:59.821Z,41.80
2022-12-04T06:37:32.972Z,39.50
2022-12-04T06:40:04.631Z,41.95
2022-12-04T06:42:34.852Z,34.78
2022-12-04T06:45:05.571Z,38.42
2022-12-04T06:47:37.891Z,42.47
2022-12-04T06:50:09.749Z,36.45
2022-12-04T06:52:42.749Z,38.75
2022-12-04T06:55:13.070Z,36.03
2022-12-04T06:57:46.506Z,44.85
2022-12-04T07:00:17.803Z,37.40
2022-12-04T07:02:49.074Z,38.00
2022-12-04T07:05:19.437Z,37.13
2022-12-04T07:07:52.467Z,40.90
2022-12-04T07:10:22.634Z,42.03
2022-12-04T07:12:52.832Z,35.88
2022-12-04T07:15:27.376Z,40.05
2022-12-04T07:17:58.389Z,38.40
2022-12-04T07:20:29.014Z,37.15
2022-12-04T07:23:07.403Z,45.72
2022-12-04T07:25:42.734Z,36.25
2022-12-04T07:28:13.083Z,42.47
2022-12-04T07:30:43.933Z,36.42
2022-12-04T07:33:14.474Z,42.75
2022-12-04T07:35:44.845Z,36.65
2022-12-04T07:38:17.701Z,39.47
2022-12-04T07:40:52.765Z,38.58
2022-12-04T07:43:23.806Z,43.80
2022-12-04T07:45:54.426Z,45.28
2022-12-04T07:48:28.789Z,48.50
2022-12-04T07:51:06.571Z,41.00
2022-12-04T07:53:41.382Z,43.80
2022-12-04T07:56:13.720Z,43.20
2022-12-04T07:58:44.542Z,50.67
2022-12-04T08:01:16.996Z,50.65
2022-12-04T08:03:49.181Z,54.22
2022-12-04T08:06:19.970Z,56.25
2022-12-04T08:08:53.890Z,55.47
2022-12-04T08:13:57.501Z,85.10
2022-12-04T08:16:29.169Z,60.70
2022-12-04T08:19:00.173Z,56.33
2022-12-04T08:21:32.644Z,57.55
2022-12-04T08:24:06.982Z,55.67
2022-12-04T08:26:37.191Z,60.70
2022-12-04T08:29:08.155Z,61.25
2022-12-04T08:31:39.791Z,59.95
2022-12-04T08:34:11.299Z,57.05
2022-12-04T08:36:42.659Z,57.55
2022-12-04T08:39:15.965Z,60.08
2022-12-04T08:41:46.234Z,58.63
2022-12-04T08:44:19.194Z,71.53
2022-12-04T08:46:49.345Z,61.80
2022-12-04T08:49:19.595Z,66.63
2022-12-04T08:51:49.963Z,61.17
2022-12-04T08:54:22.858Z,57.78
2022-12-04T08:57:01.676Z,60.08
2022-12-04T08:59:33.890Z,60.90
2022-12-04T09:02:04.059Z,62.65
2022-12-04T09:04:34.516Z,56.72
2022-12-04T09:07:04.718Z,65.50
2022-12-04T09:09:42.293Z,67.72
2022-12-04T09:12:15.298Z,62.58
2022-12-04T09:14:45.330Z,62.53
2022-12-04T09:17:15.820Z,64.80
2022-12-04T09:19:46.047Z,68.50
2022-12-04T09:22:16.120Z,69.70
2022-12-04T09:24:48.861Z,62.00
2022-12-04T09:27:18.975Z,65.90
2022-12-04T09:29:49.192Z,67.05
2022-12-04T09:32:19.412Z,65.22
2022-12-04T09:34:52.806Z,68.85
2022-12-04T09:37:23.136Z,53.45
2022-12-04T09:39:56.511Z,65.45
2022-12-04T09:42:40.542Z,57.00
2022-12-04T09:45:16.629Z,49.05
2022-12-04T09:47:52.098Z,46.17
2022-12-04T09:50:26.124Z,47.63
2022-12-04T09:53:00.919Z,47.65
2022-12-04T09:55:38.070Z,52.28
2022-12-04T09:58:13.653Z,48.40
2022-12-04T10:00:46.692Z,41.55
2022-12-04T10:03:19.968Z,44.80
2022-12-04T10:06:02.005Z,42.40
2022-12-04T10:08:35.519Z,35.13
2022-12-04T10:11:15.995Z,33.67
2022-12-04T10:14:11.736Z,44.20
2022-12-04T10:16:55.958Z,33.13
2022-12-04T10:22:10.875Z,33.55
2022-12-04T10:24:46.084Z,36.10
2022-12-04T10:27:27.682Z,39.92
2022-12-04T10:30:02.452Z,34.63
2022-12-04T10:32:34.970Z,34.25
2022-12-04T10:35:18.595Z,32.33
2022-12-04T10:37:52.627Z,29.05
2022-12-04T10:40:28.537Z,34.30
2022-12-04T10:43:06.638Z,35.28
2022-12-04T10:45:38.124Z,37.92
2022-12-04T10:48:10.838Z,30.30
2022-12-04T10:50:41.016Z,27.27
2022-12-04T10:53:13.891Z,26.90
2022-12-04T10:55:44.436Z,30.60
2022-12-04T10:58:23.650Z,33.42
2022-12-04T11:01:05.754Z,34.13
2022-12-04T11:03:41.122Z,29.90
2022-12-04T11:06:13.386Z,29.15
2022-12-04T11:08:46.597Z,36.38
2022-12-04T11:11:19.080Z,29.17
2022-12-04T11:13:51.865Z,30.08
2022-12-04T11:16:36.937Z,30.02
2022-12-04T11:19:24.099Z,29.17
2022-12-04T11:21:55.359Z,29.38
2022-12-04T11:24:28.781Z,26.83
2022-12-04T11:26:59.714Z,32.95
2022-12-04T11:29:35.662Z,28.85
2022-12-04T11:32:08.152Z,27.23
2022-12-04T11:34:41.991Z,29.60
2022-12-04T11:37:23.971Z,32.50
2022-12-04T11:39:55.548Z,30.80
2022-12-04T11:42:28.927Z,31.67
2022-12-04T11:45:05.533Z,27.98
2022-12-04T11:47:36.291Z,29.17
2022-12-04T11:50:16.596Z,30.55
2022-12-04T11:53:05.058Z,29.45
2022-12-04T11:55:45.190Z,35.08
2022-12-04T11:58:33.211Z,34.58
2022-12-04T12:01:18.689Z,32.92
2022-12-04T12:04:06.445Z,33.45
2022-12-04T12:06:40.594Z,32.38
2022-12-04T12:09:21.235Z,31.52
2022-12-04T12:11:59.245Z,30.33
2022-12-04T12:14:35.185Z,30.67
2022-12-04T12:17:21.833Z,29.38
2022-12-04T12:20:20.558Z,27.63
2022-12-04T12:23:05.638Z,23.70
2022-12-04T12:25:43.404Z,25.17
2022-12-04T12:28:26.610Z,33.97
2022-12-04T12:31:14.182Z,23.20
2022-12-04T12:33:54.076Z,26.23
2022-12-04T12:36:27.116Z,24.30
2022-12-04T12:39:04.971Z,23.98
2022-12-04T12:41:40.524Z,25.92
2022-12-04T12:44:17.464Z,25.13
2022-12-04T12:46:53.232Z,32.42
2022-12-04T12:49:32.331Z,28.20
2022-12-04T12:52:08.938Z,29.20
2022-12-04T12:54:46.706Z,32.70
2022-12-04T12:57:21.298Z,31.27
2022-12-04T12:59:56.015Z,39.13
2022-12-04T13:02:30.947Z,132.57
2022-12-04T13:05:09.608Z,83.18
2022-12-04T13:07:49.107Z,59.50
2022-12-04T13:10:24.264Z,47.42
2022-12-04T13:12:58.288Z,70.20
2022-12-04T13:15:37.734Z,55.50
2022-12-04T13:18:12.659Z,42.65
2022-12-04T13:20:54.499Z,45.15
2022-12-04T13:23:40.335Z,40.90
2022-12-04T13:26:20.172Z,50.95
2022-12-04T13:28:58.051Z,52.03
2022-12-04T13:31:37.093Z,43.45
2022-12-04T13:34:27.469Z,49.72
2022-12-04T13:37:28.532Z,45.00
2022-12-04T13:40:31.993Z,44.08
2022-12-04T13:43:32.165Z,41.67
2022-12-04T13:46:05.267Z,48.47
2022-12-04T13:48:44.407Z,50.05
2022-12-04T13:51:37.255Z,48.20
2022-12-04T13:54:37.360Z,44.08
2022-12-04T13:57:22.190Z,46.53
2022-12-04T13:59:52.864Z,51.30
2022-12-04T14:02:35.655Z,55.00
2022-12-04T14:05:08.978Z,59.08
2022-12-04T14:07:41.992Z,59.95
2022-12-04T14:10:32.412Z,57.55
2022-12-04T14:13:05.915Z,51.95
2022-12-04T14:15:39.475Z,53.17
2022-12-04T14:18:23.399Z,49.33
2022-12-04T14:21:04.618Z,49.70
2022-12-04T14:23:40.736Z,45.83
2022-12-04T14:26:48.951Z,48.45
2022-12-04T14:29:39.615Z,56.17
2022-12-04T14:32:15.804Z,55.13
2022-12-04T14:34:46.398Z,56.08
2022-12-04T14:37:25.099Z,64.60
2022-12-04T14:39:56.679Z,65.25
2022-12-04T14:42:33.454Z,55.58
2022-12-04T14:45:06.861Z,60.88
2022-12-04T14:47:46.943Z,64.72
2022-12-04T14:50:32.070Z,52.25
2022-12-04T14:53:14.303Z,49.60
2022-12-04T14:55:55.412Z,46.15
2022-12-04T14:58:34.925Z,54.00
2022-12-04T15:01:08.351Z,55.28
2022-12-04T15:03:46.270Z,55.45
2022-12-04T15:06:22.977Z,57.08
2022-12-04T15:09:15.669Z,53.83
2022-12-04T15:12:02.087Z,55.15
2022-12-04T15:14:42.877Z,92.82
2022-12-04T15:17:14.646Z,74.22
2022-12-04T15:19:44.939Z,167.32
2022-12-04T15:22:21.656Z,84.30
2022-12-04T15:24:51.871Z,134.43
2022-12-04T15:27:28.834Z,96.00
2022-12-04T15:30:06.566Z,103.90
2022-12-04T15:32:36.838Z,149.82
2022-12-04T15:35:10.542Z,388.52
2022-12-04T15:37:41.458Z,210.85
2022-12-04T15:40:21.568Z,102.18
2022-12-04T15:42:52.134Z,88.97
2022-12-04T15:45:35.453Z,110.82
2022-12-04T15:48:05.609Z,94.82
2022-12-04T15:50:38.291Z,103.18
2022-12-04T15:53:20.376Z,94.75
2022-12-04T15:55:53.717Z,97.78
2022-12-04T15:58:29.282Z,90.47
2022-12-04T16:01:07.461Z,97.70
2022-12-04T16:03:48.461Z,96.32
2022-12-04T16:06:22.289Z,94.05
2022-12-04T16:08:54.395Z,92.70
2022-12-04T16:11:37.637Z,95.18
2022-12-04T16:14:19.744Z,95.00
2022-12-04T16:16:54.892Z,92.22
2022-12-04T16:19:31.725Z,93.63
2022-12-04T16:22:02.481Z,100.97
2022-12-04T16:24:32.887Z,99.38
2022-12-04T16:27:05.800Z,96.10
2022-12-04T16:29:36.117Z,103.50
2022-12-04T16:32:09.787Z,95.28
2022-12-04T16:34:39.911Z,104.30
2022-12-04T16:37:15.437Z,98.20
2022-12-04T16:39:46.129Z,107.97
2022-12-04T16:42:20.057Z,109.85
2022-12-04T16:47:24.035Z,110.07
2022-12-04T16:49:55.514Z,108.20
2022-12-04T16:52:25.537Z,114.40
2022-12-04T16:54:58.472Z,109.95
2022-12-04T16:57:31.908Z,106.18
2022-12-04T17:00:02.258Z,103.90
2022-12-04T17:02:35.105Z,106.60
2022-12-04T17:05:05.432Z,102.78
2022-12-04T17:07:35.788Z,106.90
2022-12-04T17:10:06.526Z,107.10
2022-12-04T17:12:36.996Z,132.57
2022-12-04T17:15:08.241Z,110.13
2022-12-04T17:17:42.264Z,113.85
2022-12-04T17:20:16.368Z,119.85
2022-12-04T17:22:46.929Z,109.22
2022-12-04T17:25:19.112Z,124.28
2022-12-04T17:27:49.335Z,108.07
2022-12-04T17:30:20.221Z,112.43
2022-12-04T17:32:53.056Z,116.60
2022-12-04T17:35:24.131Z,114.50
2022-12-04T17:37:54.175Z,119.85
2022-12-04T17:40:24.395Z,119.30
2022-12-04T17:42:54.570Z,120.70
2022-12-04T17:45:25.326Z,114.80
2022-12-04T17:47:58.204Z,114.13
2022-12-04T17:50:28.780Z,113.75
2022-12-04T17:52:59.089Z,113.35
2022-12-04T17:55:29.313Z,105.50
2022-12-04T17:57:59.989Z,116.50
2022-12-04T18:00:31.003Z,108.38
2022-12-04T18:03:04.077Z,108.28
2022-12-04T18:05:34.811Z,108.72
2022-12-04T18:08:05.126Z,99.40
2022-12-04T18:10:38.682Z,103.35
2022-12-04T18:13:11.150Z,96.82
2022-12-04T18:15:42.033Z,90.03
2022-12-04T18:18:15.749Z,91.90
2022-12-04T18:20:46.343Z,77.28
2022-12-04T18:23:16.548Z,63.25
2022-12-04T18:25:56.764Z,48.58
2022-12-04T18:28:27.345Z,43.65
2022-12-04T18:30:58.685Z,35.83
2022-12-04T18:33:46.666Z,30.95
2022-12-04T18:36:19.123Z,22.27
2022-12-04T18:38:49.939Z,21.90
2022-12-04T18:41:20.016Z,15.77
2022-12-04T18:43:50.145Z,16.75
2022-12-04T18:46:23.254Z,12.75
2022-12-04T18:48:59.009Z,14.73
2022-12-04T18:51:31.305Z,16.45
2022-12-04T18:54:03.780Z,11.05
2022-12-04T18:56:35.362Z,12.43
2022-12-04T18:59:08.187Z,10.70
2022-12-04T19:01:38.553Z,10.57
2022-12-04T19:04:16.788Z,13.07
2022-12-04T19:06:49.161Z,11.68
2022-12-04T19:09:21.352Z,10.10
2022-12-04T19:11:52.698Z,12.00
2022-12-04T19:14:24.170Z,10.27
2022-12-04T19:16:56.045Z,11.98
2022-12-04T19:19:31.756Z,11.02
2022-12-04T19:22:02.269Z,11.55
2022-12-04T19:24:32.717Z,10.68
2022-12-04T19:27:11.356Z,10.73
2022-12-04T19:29:42.903Z,11.40
2022-12-04T19:32:14.988Z,11.02
2022-12-04T19:34:47.955Z,11.38
2022-12-04T19:37:19.219Z,18.30
2022-12-04T19:39:49.610Z,14.80
2022-12-04T19:42:19.718Z,15.20
2022-12-04T19:44:50.105Z,15.25
2022-12-04T19:47:21.224Z,28.30
2022-12-04T19:49:54.729Z,30.80
2022-12-04T19:52:25.091Z,15.00
2022-12-04T19:54:55.413Z,22.58
2022-12-04T19:57:25.825Z,14.57
2022-12-04T19:59:55.902Z,12.30
2022-12-04T20:02:26.160Z,14.80
2022-12-04T20:04:59.064Z,15.90
2022-12-04T20:07:30.436Z,11.75
2022-12-04T20:10:01.092Z,24.02
2022-12-04T20:12:31.581Z,12.02
2022-12-04T20:15:01.641Z,12.38
2022-12-04T20:17:32.441Z,16.42
2022-12-04T20:20:09.649Z,10.45
2022-12-04T20:22:49.091Z,25.60
2022-12-04T20:25:19.542Z,10.40
2022-12-04T20:28:03.945Z,11.30
2022-12-04T20:30:40.558Z,11.63
2022-12-04T20:33:16.606Z,10.30
2022-12-04T20:35:51.947Z,14.70
2022-12-04T20:38:22.168Z,9.70
2022-12-04T20:40:52.323Z,14.90
2022-12-04T20:43:22.516Z,9.77
2022-12-04T20:45:52.665Z,11.15
2022-12-04T20:48:22.919Z,15.15
2022-12-04T20:50:56.333Z,11.60
2022-12-04T20:53:28.492Z,11.85
2022-12-04T20:56:00.320Z,12.18
2022-12-04T20:58:31.369Z,11.70
2022-12-04T21:01:08.796Z,13.05
2022-12-04T21:03:41.500Z,11.07
2022-12-04T21:06:19.945Z,12.10
2022-12-04T21:08:56.941Z,11.98
2022-12-04T21:11:29.207Z,14.63
2022-12-04T21:14:13.188Z,12.43
2022-12-04T21:16:44.916Z,10.23
2022-12-04T21:19:17.320Z,19.67
2022-12-04T21:21:50.986Z,13.27
2022-12-04T21:24:23.664Z,11.65
2022-12-04T21:27:08.632Z,11.52
2022-12-04T21:29:38.933Z,12.43
2022-12-04T21:32:10.729Z,13.27
2022-12-04T21:34:41.691Z,18.52
2022-12-04T21:37:17.876Z,12.68
2022-12-04T21:39:49.788Z,13.55
2022-12-04T21:42:38.958Z,12.27
2022-12-04T21:45:11.100Z,13.05
2022-12-04T21:47:41.261Z,20.67
2022-12-04T21:50:12.254Z,10.60
2022-12-04T21:52:45.672Z,13.43
2022-12-04T21:55:16.031Z,14.60
2022-12-04T21:57:46.488Z,15.02
2022-12-04T22:00:18.097Z,14.23
2022-12-04T22:02:48.240Z,13.40
2022-12-04T22:05:18.959Z,19.35
2022-12-04T22:07:51.984Z,18.15
2022-12-04T22:10:22.334Z,17.30
2022-12-04T22:12:52.588Z,16.33
2022-12-04T22:15:22.704Z,14.00
2022-12-04T22:17:53.882Z,16.73
2022-12-04T22:20:24.468Z,16.50
2022-12-04T22:22:57.140Z,18.30
2022-12-04T22:25:27.380Z,12.43
2022-12-04T22:27:57.590Z,14.70
2022-12-04T22:30:29.822Z,12.27
2022-12-04T22:33:00.300Z,12.27
2022-12-04T22:35:31.053Z,13.05
2022-12-04T22:38:04.437Z,12.82
2022-12-04T22:40:34.558Z,14.60
2022-12-04T22:43:04.863Z,12.95
2022-12-04T22:45:35.600Z,13.85
2022-12-04T22:48:06.497Z,14.07
2022-12-04T22:50:36.904Z,12.90
2022-12-04T22:53:10.059Z,12.50
2022-12-04T22:55:40.294Z,13.70
2022-12-04T22:58:10.752Z,12.18
2022-12-04T23:00:44.565Z,15.05
2022-12-04T23:05:45.639Z,15.02
2022-12-04T23:08:18.583Z,15.30
2022-12-04T23:10:48.881Z,14.63
2022-12-04T23:13:20.174Z,16.08
2022-12-04T23:15:52.707Z,14.90
2022-12-04T23:18:23.069Z,14.45
2022-12-04T23:20:53.368Z,20.80
2022-12-04T23:23:26.571Z,18.45
2022-12-04T23:25:56.839Z,13.18
2022-12-04T23:28:26.973Z,26.02
2022-12-04T23:30:57.607Z,16.65
2022-12-04T23:33:28.698Z,18.77
2022-12-04T23:36:00.569Z,16.40
2022-12-04T23:38:33.705Z,16.55
2022-12-04T23:41:07.067Z,16.73
2022-12-04T23:43:38.071Z,15.98
2022-12-04T23:46:11.529Z,14.88
2022-12-04T23:48:42.383Z,14.18
2022-12-04T23:51:16.744Z,15.32
2022-12-04T23:53:51.127Z,18.55
2022-12-04T23:56:23.550Z,16.80
2022-12-04T23:58:55.807Z,20.13
